Aviation Digital Data Service (ADDS)

Output produced by METARs form (0258 UTC 16 July 2019)
found at http://www.aviationweather.gov/metar/data/
 
METAR text: KPWM 160251Z 33008KT 10SM CLR 22/12 A3001 RMK AO2 SLP161 T02220122 51013
Conditions at: KPWM (PORTLAND , ME, US) observed 0251 UTC 16 July 2019
Temperature: 22.2°C (72°F)
Dewpoint: 12.2°C (54°F) [RH = 53%]
Pressure (altimeter): 30.01 inches Hg (1016.3 mb)
[Sea-level pressure: 1016.1 mb]
Winds: from the NNW (330 degrees) at 9 MPH (8 knots; 4.1 m/s)
Visibility: 10 or more miles (16+ km)
Ceiling: at least 12,000 feet AGL
Clouds: sky clear below 12,000 feet AGL
Weather: no significant weather observed at this time

METAR text: KPWM 160151Z 34006KT 10SM CLR 22/12 A3000 RMK AO2 SLP159 T02220122
Conditions at: KPWM (PORTLAND , ME, US) observed 0151 UTC 16 July 2019
Temperature: 22.2°C (72°F)
Dewpoint: 12.2°C (54°F) [RH = 53%]
Pressure (altimeter): 30.00 inches Hg (1016.0 mb)
[Sea-level pressure: 1015.9 mb]
Winds: from the NNW (340 degrees) at 7 MPH (6 knots; 3.1 m/s)
Visibility: 10 or more miles (16+ km)
Ceiling: at least 12,000 feet AGL
Clouds: sky clear below 12,000 feet AGL
Weather: no significant weather observed at this time

METAR text: KPWM 160051Z 32006KT 10SM CLR 23/12 A2999 RMK AO2 SLP153 T02330122
Conditions at: KPWM (PORTLAND , ME, US) observed 0051 UTC 16 July 2019
Temperature: 23.3°C (74°F)
Dewpoint: 12.2°C (54°F) [RH = 50%]
Pressure (altimeter): 29.99 inches Hg (1015.7 mb)
[Sea-level pressure: 1015.3 mb]
Winds: from the NW (320 degrees) at 7 MPH (6 knots; 3.1 m/s)
Visibility: 10 or more miles (16+ km)
Ceiling: at least 12,000 feet AGL
Clouds: sky clear below 12,000 feet AGL
Weather: no significant weather observed at this time

METAR text: KPWM 152351Z 34005KT 10SM CLR 24/12 A2997 RMK AO2 SLP148 T02440122 10278 20244 53010
Conditions at: KPWM (PORTLAND , ME, US) observed 2351 UTC 15 July 2019
Temperature: 24.4°C (76°F)
Dewpoint: 12.2°C (54°F) [RH = 47%]
Pressure (altimeter): 29.97 inches Hg (1015.0 mb)
[Sea-level pressure: 1014.8 mb]
Winds: from the NNW (340 degrees) at 6 MPH (5 knots; 2.6 m/s)
Visibility: 10 or more miles (16+ km)
Ceiling: at least 12,000 feet AGL
Clouds: sky clear below 12,000 feet AGL
Weather: no significant weather observed at this time

METAR text: KPWM 152251Z 34010KT 10SM CLR 27/11 A2996 RMK AO2 SLP143 T02670111
Conditions at: KPWM (PORTLAND , ME, US) observed 2251 UTC 15 July 2019
Temperature: 26.7°C (80°F)
Dewpoint: 11.1°C (52°F) [RH = 38%]
Pressure (altimeter): 29.96 inches Hg (1014.6 mb)
[Sea-level pressure: 1014.3 mb]
Winds: from the NNW (340 degrees) at 12 MPH (10 knots; 5.1 m/s)
Visibility: 10 or more miles (16+ km)
Ceiling: at least 12,000 feet AGL
Clouds: sky clear below 12,000 feet AGL
Weather: no significant weather observed at this time

METAR text: KPWM 152151Z 31008KT 10SM FEW080 26/13 A2994 RMK AO2 SLP138 T02610128
Conditions at: KPWM (PORTLAND , ME, US) observed 2151 UTC 15 July 2019
Temperature: 26.1°C (79°F)
Dewpoint: 12.8°C (55°F) [RH = 44%]
Pressure (altimeter): 29.94 inches Hg (1014.0 mb)
[Sea-level pressure: 1013.8 mb]
Winds: from the NW (310 degrees) at 9 MPH (8 knots; 4.1 m/s)
Visibility: 10 or more miles (16+ km)
Ceiling: at least 12,000 feet AGL
Clouds: few clouds at 8000 feet AGL
Weather: no significant weather observed at this time

METAR text: KPWM 152051Z 33009KT 10SM FEW080 28/13 A2994 RMK AO2 SLP138 T02780128 55003
Conditions at: KPWM (PORTLAND , ME, US) observed 2051 UTC 15 July 2019
Temperature: 27.8°C (82°F)
Dewpoint: 12.8°C (55°F) [RH = 40%]
Pressure (altimeter): 29.94 inches Hg (1014.0 mb)
[Sea-level pressure: 1013.8 mb]
Winds: from the NNW (330 degrees) at 10 MPH (9 knots; 4.6 m/s)
Visibility: 10 or more miles (16+ km)
Ceiling: at least 12,000 feet AGL
Clouds: few clouds at 8000 feet AGL
Weather: no significant weather observed at this time

METAR text: KPWM 151951Z 34010G14KT 10SM FEW050 FEW200 28/13 A2993 RMK AO2 SLP136 T02780133
Conditions at: KPWM (PORTLAND , ME, US) observed 1951 UTC 15 July 2019
Temperature: 27.8°C (82°F)
Dewpoint: 13.3°C (56°F) [RH = 41%]
Pressure (altimeter): 29.93 inches Hg (1013.6 mb)
[Sea-level pressure: 1013.6 mb]
Winds: from the NNW (340 degrees) at 12 MPH (10 knots; 5.1 m/s)
gusting to 16 MPH (14 knots; 7.2 m/s)
Visibility: 10 or more miles (16+ km)
Ceiling: at least 12,000 feet AGL
Clouds: few clouds at 5000 feet AGL
few clouds at 20000 feet AGL
Weather: no significant weather observed at this time

METAR text: KPWM 151851Z 29010G16KT 10SM FEW045 FEW200 28/13 A2994 RMK AO2 SLP138 T02780133
Conditions at: KPWM (PORTLAND , ME, US) observed 1851 UTC 15 July 2019
Temperature: 27.8°C (82°F)
Dewpoint: 13.3°C (56°F) [RH = 41%]
Pressure (altimeter): 29.94 inches Hg (1014.0 mb)
[Sea-level pressure: 1013.8 mb]
Winds: from the WNW (290 degrees) at 12 MPH (10 knots; 5.1 m/s)
gusting to 18 MPH (16 knots; 8.2 m/s)
Visibility: 10 or more miles (16+ km)
Ceiling: at least 12,000 feet AGL
Clouds: few clouds at 4500 feet AGL
few clouds at 20000 feet AGL
Weather: no significant weather observed at this time

METAR text: KPWM 151751Z 29015G23KT 10SM FEW045 27/13 A2995 RMK AO2 SLP140 T02670133 10267 20200 58007
Conditions at: KPWM (PORTLAND , ME, US) observed 1751 UTC 15 July 2019
Temperature: 26.7°C (80°F)
Dewpoint: 13.3°C (56°F) [RH = 44%]
Pressure (altimeter): 29.95 inches Hg (1014.3 mb)
[Sea-level pressure: 1014.0 mb]
Winds: from the WNW (290 degrees) at 17 MPH (15 knots; 7.7 m/s)
gusting to 26 MPH (23 knots; 11.8 m/s)
Visibility: 10 or more miles (16+ km)
Ceiling: at least 12,000 feet AGL
Clouds: few clouds at 4500 feet AGL
Weather: no significant weather observed at this time

METAR text: KPWM 151651Z 32012G20KT 10SM FEW045 FEW180 26/12 A2996 RMK AO2 SLP145 T02610122
Conditions at: KPWM (PORTLAND , ME, US) observed 1651 UTC 15 July 2019
Temperature: 26.1°C (79°F)
Dewpoint: 12.2°C (54°F) [RH = 42%]
Pressure (altimeter): 29.96 inches Hg (1014.6 mb)
[Sea-level pressure: 1014.5 mb]
Winds: from the NW (320 degrees) at 14 MPH (12 knots; 6.2 m/s)
gusting to 23 MPH (20 knots; 10.3 m/s)
Visibility: 10 or more miles (16+ km)
Ceiling: at least 12,000 feet AGL
Clouds: few clouds at 4500 feet AGL
few clouds at 18000 feet AGL
Weather: no significant weather observed at this time

METAR text: KPWM 151551Z 32013G18KT 10SM FEW045 SCT180 26/13 A2997 RMK AO2 SLP147 T02560128
Conditions at: KPWM (PORTLAND , ME, US) observed 1551 UTC 15 July 2019
Temperature: 25.6°C (78°F)
Dewpoint: 12.8°C (55°F) [RH = 45%]
Pressure (altimeter): 29.97 inches Hg (1015.0 mb)
[Sea-level pressure: 1014.7 mb]
Winds: from the NW (320 degrees) at 15 MPH (13 knots; 6.7 m/s)
gusting to 21 MPH (18 knots; 9.3 m/s)
Visibility: 10 or more miles (16+ km)
Ceiling: at least 12,000 feet AGL
Clouds: few clouds at 4500 feet AGL
scattered clouds at 18000 feet AGL
Weather: no significant weather observed at this time

METAR text: KPWM 151451Z 33010KT 10SM SCT180 25/13 A2997 RMK AO2 SLP147 T02500133 56003
Conditions at: KPWM (PORTLAND , ME, US) observed 1451 UTC 15 July 2019
Temperature: 25.0°C (77°F)
Dewpoint: 13.3°C (56°F) [RH = 48%]
Pressure (altimeter): 29.97 inches Hg (1015.0 mb)
[Sea-level pressure: 1014.7 mb]
Winds: from the NNW (330 degrees) at 12 MPH (10 knots; 5.1 m/s)
Visibility: 10 or more miles (16+ km)
Ceiling: at least 12,000 feet AGL
Clouds: scattered clouds at 18000 feet AGL
Weather: no significant weather observed at this time

METAR text: KPWM 151351Z 32010KT 10SM FEW150 SCT250 23/14 A2997 RMK AO2 SLP147 T02330139
Conditions at: KPWM (PORTLAND , ME, US) observed 1351 UTC 15 July 2019
Temperature: 23.3°C (74°F)
Dewpoint: 13.9°C (57°F) [RH = 56%]
Pressure (altimeter): 29.97 inches Hg (1015.0 mb)
[Sea-level pressure: 1014.7 mb]
Winds: from the NW (320 degrees) at 12 MPH (10 knots; 5.1 m/s)
Visibility: 10 or more miles (16+ km)
Ceiling: at least 12,000 feet AGL
Clouds: few clouds at 15000 feet AGL
scattered clouds at 25000 feet AGL
Weather: no significant weather observed at this time

METAR text: KPWM 151251Z 26008KT 10SM FEW150 SCT250 22/13 A2997 RMK AO2 SLP148 T02170133
Conditions at: KPWM (PORTLAND , ME, US) observed 1251 UTC 15 July 2019
Temperature: 21.7°C (71°F)
Dewpoint: 13.3°C (56°F) [RH = 59%]
Pressure (altimeter): 29.97 inches Hg (1015.0 mb)
[Sea-level pressure: 1014.8 mb]
Winds: from the W (260 degrees) at 9 MPH (8 knots; 4.1 m/s)
Visibility: 10 or more miles (16+ km)
Ceiling: at least 12,000 feet AGL
Clouds: few clouds at 15000 feet AGL
scattered clouds at 25000 feet AGL
Weather: no significant weather observed at this time

METAR text: KPWM 151151Z COR 27004KT 10SM FEW250 20/13 A2997 RMK AO2 SLP150 70001 T02000133 10200 20156 51007
Conditions at: KPWM (PORTLAND , ME, US) observed 1151 UTC 15 July 2019
Temperature: 20.0°C (68°F)
Dewpoint: 13.3°C (56°F) [RH = 65%]
Pressure (altimeter): 29.97 inches Hg (1015.0 mb)
[Sea-level pressure: 1015.0 mb]
Winds: from the W (270 degrees) at 5 MPH (4 knots; 2.1 m/s)
Visibility: 10 or more miles (16+ km)
Ceiling: at least 12,000 feet AGL
Clouds: few clouds at 25000 feet AGL
Weather: no significant weather observed at this time

METAR text: KPWM 151051Z 25004KT 10SM SCT150 SCT250 17/13 A2997 RMK AO2 SLP147 T01720128
Conditions at: KPWM (PORTLAND , ME, US) observed 1051 UTC 15 July 2019
Temperature: 17.2°C (63°F)
Dewpoint: 12.8°C (55°F) [RH = 75%]
Pressure (altimeter): 29.97 inches Hg (1015.0 mb)
[Sea-level pressure: 1014.7 mb]
Winds: from the WSW (250 degrees) at 5 MPH (4 knots; 2.1 m/s)
Visibility: 10 or more miles (16+ km)
Ceiling: at least 12,000 feet AGL
Clouds: scattered clouds at 15000 feet AGL
scattered clouds at 25000 feet AGL
Weather: no significant weather observed at this time

METAR text: KPWM 150951Z 27005KT 10SM SCT150 17/12 A2996 RMK AO2 SLP146 T01670122
Conditions at: KPWM (PORTLAND , ME, US) observed 0951 UTC 15 July 2019
Temperature: 16.7°C (62°F)
Dewpoint: 12.2°C (54°F) [RH = 75%]
Pressure (altimeter): 29.96 inches Hg (1014.6 mb)
[Sea-level pressure: 1014.6 mb]
Winds: from the W (270 degrees) at 6 MPH (5 knots; 2.6 m/s)
Visibility: 10 or more miles (16+ km)
Ceiling: at least 12,000 feet AGL
Clouds: scattered clouds at 15000 feet AGL
Weather: no significant weather observed at this time

METAR text: KPWM 150851Z 28006KT 10SM FEW150 16/12 A2995 RMK AO2 SLP142 T01560122 53005
Conditions at: KPWM (PORTLAND , ME, US) observed 0851 UTC 15 July 2019
Temperature: 15.6°C (60°F)
Dewpoint: 12.2°C (54°F) [RH = 80%]
Pressure (altimeter): 29.95 inches Hg (1014.3 mb)
[Sea-level pressure: 1014.2 mb]
Winds: from the W (280 degrees) at 7 MPH (6 knots; 3.1 m/s)
Visibility: 10 or more miles (16+ km)
Ceiling: at least 12,000 feet AGL
Clouds: few clouds at 15000 feet AGL
Weather: no significant weather observed at this time

METAR text: KPWM 150751Z AUTO 27007KT 10SM CLR 18/12 A2994 RMK AO2 SLP139 T01780122
Conditions at: KPWM (PORTLAND , ME, US) observed 0751 UTC 15 July 2019
Temperature: 17.8°C (64°F)
Dewpoint: 12.2°C (54°F) [RH = 70%]
Pressure (altimeter): 29.94 inches Hg (1014.0 mb)
[Sea-level pressure: 1013.9 mb]
Winds: from the W (270 degrees) at 8 MPH (7 knots; 3.6 m/s)
Visibility: 10 or more miles (16+ km)
Ceiling: at least 12,000 feet AGL
Clouds: sky clear below 12,000 feet AGL
Weather: automated observation with no human augmentation;
there may or may not be significant weather present at this time

METAR text: KPWM 150651Z AUTO 24003KT 10SM CLR 18/12 A2993 RMK AO2 SLP135 T01780122
Conditions at: KPWM (PORTLAND , ME, US) observed 0651 UTC 15 July 2019
Temperature: 17.8°C (64°F)
Dewpoint: 12.2°C (54°F) [RH = 70%]
Pressure (altimeter): 29.93 inches Hg (1013.6 mb)
[Sea-level pressure: 1013.5 mb]
Winds: from the WSW (240 degrees) at 3 MPH (3 knots; 1.5 m/s)
Visibility: 10 or more miles (16+ km)
Ceiling: at least 12,000 feet AGL
Clouds: sky clear below 12,000 feet AGL
Weather: automated observation with no human augmentation;
there may or may not be significant weather present at this time

METAR text: KPWM 150551Z AUTO 26004KT 10SM CLR 19/13 A2994 RMK AO2 SLP137 T01890128 10250 20189 50004
Conditions at: KPWM (PORTLAND , ME, US) observed 0551 UTC 15 July 2019
Temperature: 18.9°C (66°F)
Dewpoint: 12.8°C (55°F) [RH = 68%]
Pressure (altimeter): 29.94 inches Hg (1014.0 mb)
[Sea-level pressure: 1013.7 mb]
Winds: from the W (260 degrees) at 5 MPH (4 knots; 2.1 m/s)
Visibility: 10 or more miles (16+ km)
Ceiling: at least 12,000 feet AGL
Clouds: sky clear below 12,000 feet AGL
Weather: automated observation with no human augmentation;
there may or may not be significant weather present at this time

METAR text: KPWM 150451Z AUTO 26004KT 10SM CLR 20/13 A2994 RMK AO2 SLP138 T02000128 402940183
Conditions at: KPWM (PORTLAND , ME, US) observed 0451 UTC 15 July 2019
Temperature: 20.0°C (68°F)
Dewpoint: 12.8°C (55°F) [RH = 63%]
Pressure (altimeter): 29.94 inches Hg (1014.0 mb)
[Sea-level pressure: 1013.8 mb]
Winds: from the W (260 degrees) at 5 MPH (4 knots; 2.1 m/s)
Visibility: 10 or more miles (16+ km)
Ceiling: at least 12,000 feet AGL
Clouds: sky clear below 12,000 feet AGL
Weather: automated observation with no human augmentation;
there may or may not be significant weather present at this time

METAR text: KPWM 150351Z 00000KT 10SM BKN060 20/13 A2994 RMK AO2 SLP140 LAST T02000133
Conditions at: KPWM (PORTLAND , ME, US) observed 0351 UTC 15 July 2019
Temperature: 20.0°C (68°F)
Dewpoint: 13.3°C (56°F) [RH = 65%]
Pressure (altimeter): 29.94 inches Hg (1014.0 mb)
[Sea-level pressure: 1014.0 mb]
Winds: calm
Visibility: 10 or more miles (16+ km)
Ceiling: 6000 feet AGL
Clouds: broken clouds at 6000 feet AGL
Weather: no significant weather observed at this time

METAR text: KPWM 150251Z 35005KT 10SM CLR 21/13 A2993 RMK AO2 SLP133 T02060133 51022
Conditions at: KPWM (PORTLAND , ME, US) observed 0251 UTC 15 July 2019
Temperature: 20.6°C (69°F)
Dewpoint: 13.3°C (56°F) [RH = 63%]
Pressure (altimeter): 29.93 inches Hg (1013.6 mb)
[Sea-level pressure: 1013.3 mb]
Winds: from the N (350 degrees) at 6 MPH (5 knots; 2.6 m/s)
Visibility: 10 or more miles (16+ km)
Ceiling: at least 12,000 feet AGL
Clouds: sky clear below 12,000 feet AGL
Weather: no significant weather observed at this time

METAR text: KPWM 150151Z 33006KT 10SM CLR 22/13 A2991 RMK AO2 SLP129 T02220133
Conditions at: KPWM (PORTLAND , ME, US) observed 0151 UTC 15 July 2019
Temperature: 22.2°C (72°F)
Dewpoint: 13.3°C (56°F) [RH = 57%]
Pressure (altimeter): 29.91 inches Hg (1013.0 mb)
[Sea-level pressure: 1012.9 mb]
Winds: from the NNW (330 degrees) at 7 MPH (6 knots; 3.1 m/s)
Visibility: 10 or more miles (16+ km)
Ceiling: at least 12,000 feet AGL
Clouds: sky clear below 12,000 feet AGL
Weather: no significant weather observed at this time

METAR text: KPWM 150051Z 35007KT 10SM SCT080 23/14 A2990 RMK AO2 SLP123 T02330139
Conditions at: KPWM (PORTLAND , ME, US) observed 0051 UTC 15 July 2019
Temperature: 23.3°C (74°F)
Dewpoint: 13.9°C (57°F) [RH = 56%]
Pressure (altimeter): 29.90 inches Hg (1012.6 mb)
[Sea-level pressure: 1012.3 mb]
Winds: from the N (350 degrees) at 8 MPH (7 knots; 3.6 m/s)
Visibility: 10 or more miles (16+ km)
Ceiling: at least 12,000 feet AGL
Clouds: scattered clouds at 8000 feet AGL
Weather: no significant weather observed at this time

METAR text: KPWM 142351Z 33011G15KT 10SM SCT080 25/14 A2986 RMK AO2 SLP111 60001 T02500139 10294 20211 53015
Conditions at: KPWM (PORTLAND , ME, US) observed 2351 UTC 14 July 2019
Temperature: 25.0°C (77°F)
Dewpoint: 13.9°C (57°F) [RH = 50%]
Pressure (altimeter): 29.86 inches Hg (1011.3 mb)
[Sea-level pressure: 1011.1 mb]
Winds: from the NNW (330 degrees) at 13 MPH (11 knots; 5.7 m/s)
gusting to 17 MPH (15 knots; 7.7 m/s)
Visibility: 10 or more miles (16+ km)
Ceiling: at least 12,000 feet AGL
Clouds: scattered clouds at 8000 feet AGL
Weather: no significant weather observed at this time

METAR text: KPWM 142251Z 32010KT 10SM SCT070 26/14 A2984 RMK AO2 SLP103 T02610144
Conditions at: KPWM (PORTLAND , ME, US) observed 2251 UTC 14 July 2019
Temperature: 26.1°C (79°F)
Dewpoint: 14.4°C (58°F) [RH = 49%]
Pressure (altimeter): 29.84 inches Hg (1010.6 mb)
[Sea-level pressure: 1010.3 mb]
Winds: from the NW (320 degrees) at 12 MPH (10 knots; 5.1 m/s)
Visibility: 10 or more miles (16+ km)
Ceiling: at least 12,000 feet AGL
Clouds: scattered clouds at 7000 feet AGL
Weather: no significant weather observed at this time

METAR text: KPWM 142151Z 33009KT 10SM FEW070 SCT095 27/14 A2983 RMK AO2 SLP100 T02720139
Conditions at: KPWM (PORTLAND , ME, US) observed 2151 UTC 14 July 2019
Temperature: 27.2°C (81°F)
Dewpoint: 13.9°C (57°F) [RH = 44%]
Pressure (altimeter): 29.83 inches Hg (1010.2 mb)
[Sea-level pressure: 1010.0 mb]
Winds: from the NNW (330 degrees) at 10 MPH (9 knots; 4.6 m/s)
Visibility: 10 or more miles (16+ km)
Ceiling: at least 12,000 feet AGL
Clouds: few clouds at 7000 feet AGL
scattered clouds at 9500 feet AGL
Weather: no significant weather observed at this time

METAR text: KPWM 142051Z 28012KT 10SM FEW065 SCT200 28/15 A2982 RMK AO2 SLP096 60001 T02830150 51003
Conditions at: KPWM (PORTLAND , ME, US) observed 2051 UTC 14 July 2019
Temperature: 28.3°C (83°F)
Dewpoint: 15.0°C (59°F) [RH = 44%]
Pressure (altimeter): 29.82 inches Hg (1009.9 mb)
[Sea-level pressure: 1009.6 mb]
Winds: from the W (280 degrees) at 14 MPH (12 knots; 6.2 m/s)
Visibility: 10 or more miles (16+ km)
Ceiling: at least 12,000 feet AGL
Clouds: few clouds at 6500 feet AGL
scattered clouds at 20000 feet AGL
Weather: no significant weather observed at this time

METAR text: KPWM 141951Z 29010KT 10SM SCT055 SCT120 28/16 A2981 RMK AO2 SLP093 T02830161
Conditions at: KPWM (PORTLAND , ME, US) observed 1951 UTC 14 July 2019
Temperature: 28.3°C (83°F)
Dewpoint: 16.1°C (61°F) [RH = 48%]
Pressure (altimeter): 29.81 inches Hg (1009.6 mb)
[Sea-level pressure: 1009.3 mb]
Winds: from the WNW (290 degrees) at 12 MPH (10 knots; 5.1 m/s)
Visibility: 10 or more miles (16+ km)
Ceiling: at least 12,000 feet AGL
Clouds: scattered clouds at 5500 feet AGL
scattered clouds at 12000 feet AGL
Weather: no significant weather observed at this time

METAR text: KPWM 141851Z 28007KT 10SM SCT055 SCT120 24/17 A2982 RMK AO2 PK WND 30029/1819 RAB18E39 SLP098 P0001 T02440167
Conditions at: KPWM (PORTLAND , ME, US) observed 1851 UTC 14 July 2019
Temperature: 24.4°C (76°F)
Dewpoint: 16.7°C (62°F) [RH = 62%]
Pressure (altimeter): 29.82 inches Hg (1009.9 mb)
[Sea-level pressure: 1009.8 mb]
Winds: from the W (280 degrees) at 8 MPH (7 knots; 3.6 m/s)
Visibility: 10 or more miles (16+ km)
Ceiling: at least 12,000 feet AGL
Clouds: scattered clouds at 5500 feet AGL
scattered clouds at 12000 feet AGL
Weather: no significant weather observed at this time

METAR text: KPWM 141751Z 29011KT 10SM SCT055 SCT120 29/17 A2981 RMK AO2 SLP093 T02940172 10294 20233 58009
Conditions at: KPWM (PORTLAND , ME, US) observed 1751 UTC 14 July 2019
Temperature: 29.4°C (85°F)
Dewpoint: 17.2°C (63°F) [RH = 48%]
Pressure (altimeter): 29.81 inches Hg (1009.6 mb)
[Sea-level pressure: 1009.3 mb]
Winds: from the WNW (290 degrees) at 13 MPH (11 knots; 5.7 m/s)
Visibility: 10 or more miles (16+ km)
Ceiling: at least 12,000 feet AGL
Clouds: scattered clouds at 5500 feet AGL
scattered clouds at 12000 feet AGL
Weather: no significant weather observed at this time

METAR text: KPWM 141651Z 31006KT 10SM BKN050 BKN100 27/17 A2983 RMK AO2 SLP101 T02720167
Conditions at: KPWM (PORTLAND , ME, US) observed 1651 UTC 14 July 2019
Temperature: 27.2°C (81°F)
Dewpoint: 16.7°C (62°F) [RH = 53%]
Pressure (altimeter): 29.83 inches Hg (1010.2 mb)
[Sea-level pressure: 1010.1 mb]
Winds: from the NW (310 degrees) at 7 MPH (6 knots; 3.1 m/s)
Visibility: 10 or more miles (16+ km)
Ceiling: 5000 feet AGL
Clouds: broken clouds at 5000 feet AGL
broken clouds at 10000 feet AGL
Weather: no significant weather observed at this time

METAR text: KPWM 141551Z 26003KT 10SM BKN043 28/18 A2983 RMK AO2 SLP100 T02830178
Conditions at: KPWM (PORTLAND , ME, US) observed 1551 UTC 14 July 2019
Temperature: 28.3°C (83°F)
Dewpoint: 17.8°C (64°F) [RH = 53%]
Pressure (altimeter): 29.83 inches Hg (1010.2 mb)
[Sea-level pressure: 1010.0 mb]
Winds: from the W (260 degrees) at 3 MPH (3 knots; 1.5 m/s)
Visibility: 10 or more miles (16+ km)
Ceiling: 4300 feet AGL
Clouds: broken clouds at 4300 feet AGL
Weather: no significant weather observed at this time

Forecast for: KPWM (PORTLAND , ME, US)
Text: KPWM 152322Z 1600/1624 32005KT P6SM SCT250
Forecast period: 0000 to 1700 UTC 16 July 2019
Forecast type: FROM: standard forecast or significant change
Winds: from the NW (320 degrees) at 6 MPH (5 knots; 2.6 m/s)
Visibility: 6 or more miles 10+ km)
Ceiling: at least 12,000 feet AGL
Clouds: scattered clouds at 25000 feet AGL
Weather: no significant weather forecast for this period
Text: FM161700 17010KT P6SM SCT070
Forecast period: 1700 UTC 16 July 2019 to 0000 UTC 17 July 2019
Forecast type: FROM: standard forecast or significant change
Winds: from the S (170 degrees) at 12 MPH (10 knots; 5.1 m/s)
Visibility: 6 or more miles 10+ km)
Ceiling: at least 12,000 feet AGL
Clouds: scattered clouds at 7000 feet AGL
Weather: no significant weather forecast for this period